Time;durP1;ratioP1;P1;durP2;ratioP2;P2;SDS_P1;SDS_P2;PMS_P1;PMS_P2;Temp;Humidity;BMP_temperature;BMP_pressure;BME280_temperature;BME280_humidity;BME280_pressure;Samples;Min_cycle;Max_cycle;Signal;HPM_P1;HPM_P2
2020/12/21 00:00:22;;;;;;;21.30;13.40;;;5.10;99.90;;;;;;5015337;28;20468;-65
2020/12/21 00:02:49;;;;;;;17.63;12.50;;;5.20;99.90;;;;;;5014673;28;20468;-65
2020/12/21 00:05:15;;;;;;;18.30;11.93;;;5.20;99.90;;;;;;5014990;28;20519;-64
2020/12/21 00:07:41;;;;;;;15.67;12.00;;;5.20;99.90;;;;;;5014982;28;20465;-64
2020/12/21 00:10:07;;;;;;;19.27;12.40;;;5.20;99.90;;;;;;5015130;28;20480;-64
2020/12/21 00:12:33;;;;;;;23.50;13.70;;;5.20;99.90;;;;;;5016742;28;20954;-64
2020/12/21 00:15:00;;;;;;;17.97;12.43;;;5.10;99.90;;;;;;5015616;28;20539;-64
2020/12/21 00:17:27;;;;;;;20.33;13.07;;;5.10;99.90;;;;;;5014893;28;20461;-64
2020/12/21 00:19:53;;;;;;;20.80;12.83;;;5.10;99.90;;;;;;5014990;28;20806;-64
2020/12/21 00:22:19;;;;;;;23.13;13.43;;;5.10;99.90;;;;;;5016028;28;20452;-64
2020/12/21 00:24:45;;;;;;;20.90;12.40;;;5.10;99.90;;;;;;5015271;28;21000;-64
2020/12/21 00:27:11;;;;;;;17.20;12.40;;;5.10;99.90;;;;;;5015061;28;20472;-65
2020/12/21 00:29:38;;;;;;;17.50;12.70;;;5.10;99.90;;;;;;5014615;28;20537;-64
2020/12/21 00:32:04;;;;;;;19.33;12.37;;;5.10;99.90;;;;;;5014741;28;20471;-64
2020/12/21 00:34:31;;;;;;;21.37;13.07;;;5.10;99.90;;;;;;5014848;28;20460;-64
2020/12/21 00:36:57;;;;;;;19.97;13.20;;;5.10;99.90;;;;;;5014573;28;20518;-64
2020/12/21 00:39:23;;;;;;;23.23;12.70;;;5.20;99.90;;;;;;5015123;28;20472;-65
2020/12/21 00:41:49;;;;;;;23.47;13.43;;;5.20;99.90;;;;;;5014767;28;20452;-65
2020/12/21 00:44:16;;;;;;;19.97;13.57;;;5.20;99.90;;;;;;5015494;28;20764;-64
2020/12/21 00:46:43;;;;;;;20.00;13.60;;;5.30;99.90;;;;;;5014628;28;20934;-64
2020/12/21 00:49:09;;;;;;;19.00;12.80;;;5.30;99.90;;;;;;5014656;28;20518;-65
2020/12/21 00:51:36;;;;;;;20.00;12.90;;;5.30;99.90;;;;;;5015323;28;20791;-64
2020/12/21 00:54:02;;;;;;;18.50;12.23;;;5.30;99.90;;;;;;5018412;28;20539;-64
2020/12/21 00:56:28;;;;;;;21.43;13.27;;;5.30;99.90;;;;;;5018934;28;20457;-65
2020/12/21 00:58:54;;;;;;;25.73;13.73;;;5.30;99.90;;;;;;5018186;28;20950;-65
2020/12/21 01:01:22;;;;;;;19.00;12.97;;;5.30;99.90;;;;;;5017982;28;20483;-63
2020/12/21 01:03:49;;;;;;;20.23;13.43;;;5.30;99.90;;;;;;5018043;28;20457;-64
2020/12/21 01:06:15;;;;;;;18.33;13.13;;;5.30;99.90;;;;;;5017546;28;20950;-63
2020/12/21 01:08:44;;;;;;;17.50;11.50;;;5.30;99.90;;;;;;5017685;28;20492;-64
2020/12/21 01:11:11;;;;;;;22.90;13.83;;;5.40;99.90;;;;;;5017214;28;20945;-64
2020/12/21 01:13:38;;;;;;;18.27;12.20;;;5.40;99.90;;;;;;5018015;28;20476;-65
2020/12/21 01:16:04;;;;;;;17.10;12.00;;;5.40;99.90;;;;;;5018091;28;20460;-64
2020/12/21 01:18:30;;;;;;;21.37;13.00;;;5.30;99.90;;;;;;5017628;28;20461;-64
2020/12/21 01:20:56;;;;;;;18.00;12.33;;;5.40;99.90;;;;;;5017133;28;20503;-64
2020/12/21 01:23:22;;;;;;;17.87;13.40;;;5.40;99.90;;;;;;5017510;28;20456;-64
2020/12/21 01:25:49;;;;;;;21.60;13.53;;;5.40;99.90;;;;;;5017475;28;20847;-65
2020/12/21 01:28:15;;;;;;;18.23;12.80;;;5.40;99.90;;;;;;5017086;28;20485;-63
2020/12/21 01:30:42;;;;;;;20.20;13.47;;;5.30;99.90;;;;;;5016961;28;20484;-64
2020/12/21 01:33:09;;;;;;;21.33;13.07;;;5.30;99.90;;;;;;5017345;28;20515;-64
2020/12/21 01:35:35;;;;;;;25.43;14.93;;;5.30;99.90;;;;;;5017853;28;20519;-64
2020/12/21 01:38:01;;;;;;;21.10;13.13;;;5.30;99.90;;;;;;5017303;28;20519;-64
2020/12/21 01:40:27;;;;;;;19.83;14.03;;;5.30;99.90;;;;;;5017903;28;20464;-63
2020/12/21 01:42:54;;;;;;;20.63;12.17;;;5.40;99.90;;;;;;5018445;28;20449;-66
2020/12/21 01:45:20;;;;;;;19.00;13.27;;;5.40;99.90;;;;;;5017402;28;20605;-64
2020/12/21 01:47:46;;;;;;;17.97;12.23;;;5.40;99.90;;;;;;5017181;28;20539;-64
2020/12/21 01:50:13;;;;;;;20.00;13.47;;;5.40;99.90;;;;;;5017110;28;20464;-64
2020/12/21 01:52:39;;;;;;;24.13;13.40;;;5.40;99.90;;;;;;5017193;28;20512;-64
2020/12/21 01:55:06;;;;;;;20.40;13.73;;;5.40;99.90;;;;;;5017543;28;20489;-64
2020/12/21 01:57:32;;;;;;;20.87;13.60;;;5.40;99.90;;;;;;5017541;28;20515;-64
2020/12/21 02:00:02;;;;;;;23.37;13.77;;;5.40;99.90;;;;;;5017353;28;20464;-64
2020/12/21 02:02:28;;;;;;;20.07;14.27;;;5.40;99.90;;;;;;5016724;28;20767;-64
2020/12/21 02:04:54;;;;;;;21.60;13.87;;;5.50;99.90;;;;;;5016633;28;20492;-64
2020/12/21 02:07:20;;;;;;;22.20;14.90;;;5.50;99.90;;;;;;5016808;28;20476;-64
2020/12/21 02:09:46;;;;;;;26.53;15.23;;;5.50;99.90;;;;;;5016585;28;20957;-64
2020/12/21 02:12:13;;;;;;;18.60;13.90;;;5.50;99.90;;;;;;5020882;28;20453;-63
2020/12/21 02:14:39;;;;;;;20.17;12.63;;;5.50;99.90;;;;;;5018033;28;20468;-64
2020/12/21 02:17:05;;;;;;;17.93;13.50;;;5.50;99.90;;;;;;5016781;28;20492;-64
2020/12/21 02:19:31;;;;;;;19.33;14.30;;;5.50;99.90;;;;;;5016606;28;20491;-66
2020/12/21 02:21:58;;;;;;;20.30;14.10;;;5.40;99.90;;;;;;5016384;28;20491;-66
2020/12/21 02:24:24;;;;;;;26.23;13.27;;;5.50;99.90;;;;;;5016514;28;20527;-64
2020/12/21 02:26:51;;;;;;;21.00;14.47;;;5.50;99.90;;;;;;5016703;28;20470;-64
2020/12/21 02:29:17;;;;;;;20.53;12.83;;;5.50;99.90;;;;;;5015902;28;21028;-64
2020/12/21 02:31:43;;;;;;;22.70;14.27;;;5.50;99.90;;;;;;5016469;28;20456;-65
2020/12/21 02:34:09;;;;;;;20.13;13.80;;;5.50;99.90;;;;;;5016410;28;20476;-63
2020/12/21 02:36:35;;;;;;;21.87;14.33;;;5.50;99.90;;;;;;5015959;28;20511;-64
2020/12/21 02:39:02;;;;;;;21.43;13.73;;;5.50;99.90;;;;;;5016383;28;20842;-65
2020/12/21 02:41:28;;;;;;;18.40;12.47;;;5.50;99.90;;;;;;5016474;28;20464;-65
2020/12/21 02:43:54;;;;;;;21.17;14.50;;;5.60;99.90;;;;;;5015779;28;20938;-63
2020/12/21 02:46:20;;;;;;;19.30;13.87;;;5.60;99.90;;;;;;5016233;28;20456;-65
2020/12/21 02:48:47;;;;;;;18.73;12.13;;;5.70;99.90;;;;;;5015928;28;20456;-66
2020/12/21 02:51:16;;;;;;;19.63;13.50;;;5.60;99.90;;;;;;5016071;28;20465;-65
2020/12/21 02:53:42;;;;;;;20.37;15.00;;;5.70;99.90;;;;;;5015833;28;20481;-64
2020/12/21 02:56:09;;;;;;;17.97;13.60;;;5.70;99.90;;;;;;5015955;28;20456;-64
2020/12/21 02:58:35;;;;;;;22.73;14.30;;;5.80;99.90;;;;;;5016195;28;20548;-64
2020/12/21 03:01:01;;;;;;;18.30;13.03;;;5.70;99.90;;;;;;5015623;28;20519;-63
2020/12/21 03:03:27;;;;;;;21.20;14.50;;;5.80;99.90;;;;;;5015715;28;20852;-64
2020/12/21 03:05:54;;;;;;;20.30;14.33;;;5.80;99.90;;;;;;5015474;28;20456;-64
2020/12/21 03:08:20;;;;;;;20.00;13.60;;;5.90;99.90;;;;;;5015708;28;20457;-63
2020/12/21 03:10:47;;;;;;;23.30;14.47;;;5.90;99.90;;;;;;5015584;28;20472;-64
2020/12/21 03:13:13;;;;;;;20.30;14.63;;;6.00;99.90;;;;;;5015493;28;20512;-64
2020/12/21 03:15:39;;;;;;;17.73;12.50;;;6.00;99.90;;;;;;5014773;28;20480;-63
2020/12/21 03:18:06;;;;;;;17.70;13.70;;;6.00;99.90;;;;;;5015318;28;20461;-64
2020/12/21 03:20:32;;;;;;;19.10;14.23;;;6.00;99.90;;;;;;5015327;28;20460;-63
2020/12/21 03:22:58;;;;;;;21.33;13.90;;;6.00;99.90;;;;;;5015467;28;20457;-64
2020/12/21 03:25:24;;;;;;;21.30;13.80;;;6.10;99.90;;;;;;5015135;28;20493;-62
2020/12/21 03:27:50;;;;;;;19.37;13.70;;;6.20;99.90;;;;;;5015987;28;20472;-63
2020/12/21 03:30:17;;;;;;;20.50;14.10;;;6.20;99.90;;;;;;5016358;28;20997;-64
2020/12/21 03:32:43;;;;;;;19.37;13.40;;;6.10;99.90;;;;;;5015978;28;20516;-63
2020/12/21 03:35:09;;;;;;;20.43;15.30;;;6.10;99.90;;;;;;5016055;28;20465;-63
2020/12/21 03:37:36;;;;;;;17.43;13.90;;;6.10;99.90;;;;;;5015260;28;20793;-63
2020/12/21 03:40:05;;;;;;;21.17;14.03;;;6.10;99.90;;;;;;5015319;28;20487;-63
2020/12/21 03:42:32;;;;;;;22.57;15.07;;;6.10;99.90;;;;;;5015260;28;20540;-63
2020/12/21 03:44:58;;;;;;;23.43;15.10;;;6.10;99.90;;;;;;5015891;28;20471;-62
2020/12/21 03:47:25;;;;;;;22.13;14.43;;;6.20;99.90;;;;;;5016009;28;20560;-63
2020/12/21 03:49:51;;;;;;;20.40;15.37;;;6.10;99.90;;;;;;5014792;28;20461;-62
2020/12/21 03:52:17;;;;;;;22.70;14.17;;;6.20;99.90;;;;;;5015065;28;20485;-63
2020/12/21 03:54:43;;;;;;;22.63;15.57;;;6.20;99.90;;;;;;5015191;28;20457;-64
2020/12/21 03:57:09;;;;;;;18.50;14.97;;;6.30;99.90;;;;;;5015042;28;20452;-63
2020/12/21 03:59:36;;;;;;;20.27;14.47;;;6.30;99.90;;;;;;5015110;28;20457;-64
2020/12/21 04:02:02;;;;;;;19.93;14.63;;;6.30;99.90;;;;;;5015071;28;20456;-63
2020/12/21 04:04:29;;;;;;;20.67;15.10;;;6.30;99.90;;;;;;5014941;28;20476;-63
2020/12/21 04:06:55;;;;;;;20.50;15.20;;;6.30;99.90;;;;;;5014609;28;20489;-63
2020/12/21 04:09:21;;;;;;;21.87;14.60;;;6.30;99.90;;;;;;5015010;28;20452;-63
2020/12/21 04:11:47;;;;;;;18.40;15.20;;;6.30;99.90;;;;;;5015003;28;20457;-64
2020/12/21 04:14:13;;;;;;;16.80;12.93;;;6.30;99.90;;;;;;5015601;28;20516;-63
2020/12/21 04:16:39;;;;;;;24.10;15.20;;;6.30;99.90;;;;;;5015549;28;20469;-63
2020/12/21 04:19:05;;;;;;;21.27;14.93;;;6.30;99.90;;;;;;5014751;28;20477;-63
2020/12/21 04:21:32;;;;;;;20.93;14.60;;;6.40;99.90;;;;;;5014824;28;20467;-64
2020/12/21 04:23:58;;;;;;;19.00;14.70;;;6.30;99.90;;;;;;5015322;28;20453;-62
2020/12/21 04:26:24;;;;;;;17.57;13.67;;;6.30;99.90;;;;;;5014864;28;20461;-63
2020/12/21 04:28:50;;;;;;;21.77;13.80;;;6.30;99.90;;;;;;5018226;28;20516;-64
2020/12/21 04:31:16;;;;;;;21.70;14.57;;;6.30;99.90;;;;;;5019260;28;20456;-63
2020/12/21 04:33:43;;;;;;;21.03;13.87;;;6.30;99.90;;;;;;5018181;28;20488;-63
2020/12/21 04:36:09;;;;;;;21.37;14.50;;;6.30;99.90;;;;;;5018458;28;20460;-63
2020/12/21 04:38:37;;;;;;;19.60;15.40;;;6.30;99.90;;;;;;5018346;28;20521;-63
2020/12/21 04:41:03;;;;;;;20.47;15.03;;;6.30;99.90;;;;;;5018231;28;20461;-63
2020/12/21 04:43:31;;;;;;;22.03;14.80;;;6.30;99.90;;;;;;5017943;28;20949;-63
2020/12/21 04:46:04;;;;;;;21.87;15.03;;;6.20;99.90;;;;;;5017902;28;20461;-63
2020/12/21 04:48:32;;;;;;;24.43;15.23;;;6.20;99.90;;;;;;5018166;28;20441;-64
2020/12/21 04:50:58;;;;;;;25.50;15.83;;;6.20;99.90;;;;;;5017952;28;20456;-63
2020/12/21 04:53:24;;;;;;;22.07;15.17;;;6.20;99.90;;;;;;5018134;28;20488;-63
2020/12/21 04:55:52;;;;;;;23.77;16.07;;;6.20;99.90;;;;;;5018547;28;20456;-63
2020/12/21 04:58:18;;;;;;;21.00;14.40;;;6.10;99.90;;;;;;5018048;28;20464;-63
2020/12/21 05:00:44;;;;;;;20.33;14.47;;;6.20;99.90;;;;;;5018037;28;20470;-65
2020/12/21 05:03:10;;;;;;;19.17;13.97;;;6.20;99.90;;;;;;5017822;28;20511;-63
2020/12/21 05:05:38;;;;;;;20.20;14.33;;;6.20;99.90;;;;;;5017782;28;20492;-63
2020/12/21 05:08:10;;;;;;;19.10;14.10;;;6.30;99.90;;;;;;5017847;28;20457;-63
2020/12/21 05:10:37;;;;;;;21.37;15.20;;;6.20;99.90;;;;;;5017796;28;20489;-62
2020/12/21 05:13:04;;;;;;;22.50;14.80;;;6.20;99.90;;;;;;5017655;28;20481;-63
2020/12/21 05:15:31;;;;;;;20.40;14.47;;;6.10;99.90;;;;;;5017568;28;20461;-62
2020/12/21 05:18:08;;;;;;;22.00;15.20;;;6.10;99.90;;;;;;5017705;28;20491;-63
2020/12/21 05:20:35;;;;;;;21.20;14.10;;;6.10;99.90;;;;;;5017596;28;20808;-64
2020/12/21 05:23:03;;;;;;;19.93;14.97;;;6.10;99.90;;;;;;5017576;28;20791;-63
2020/12/21 05:25:30;;;;;;;21.87;16.00;;;6.10;99.90;;;;;;5018406;28;20464;-63
2020/12/21 05:28:08;;;;;;;22.60;14.90;;;6.10;99.90;;;;;;5017486;28;20467;-63
2020/12/21 05:30:35;;;;;;;21.33;14.53;;;6.10;99.90;;;;;;5017077;28;20484;-63
2020/12/21 05:33:01;;;;;;;22.27;15.73;;;6.10;99.90;;;;;;5017403;28;20935;-63
2020/12/21 05:35:29;;;;;;;21.00;14.77;;;6.10;99.90;;;;;;5017454;28;20491;-63
2020/12/21 05:37:55;;;;;;;24.87;16.03;;;6.00;99.90;;;;;;5016707;28;20548;-62
2020/12/21 05:40:24;;;;;;;21.03;15.20;;;6.00;99.90;;;;;;5017243;28;20523;-63
2020/12/21 05:42:51;;;;;;;19.93;15.10;;;6.00;99.90;;;;;;5017621;28;20453;-62
2020/12/21 05:45:17;;;;;;;23.70;16.33;;;6.00;99.90;;;;;;5017517;28;20461;-64
2020/12/21 05:47:48;;;;;;;20.97;15.00;;;6.00;99.90;;;;;;5018953;28;20461;-62
2020/12/21 05:50:20;;;;;;;22.30;15.20;;;6.00;99.90;;;;;;5017115;28;20503;-63
2020/12/21 05:52:52;;;;;;;22.40;14.17;;;6.10;99.90;;;;;;5017517;28;20507;-62
2020/12/21 05:55:20;;;;;;;24.37;14.90;;;6.00;99.90;;;;;;5017007;28;20445;-63
2020/12/21 05:57:48;;;;;;;21.57;15.03;;;6.00;99.90;;;;;;5017289;28;20457;-63
2020/12/21 06:00:15;;;;;;;22.17;14.23;;;6.00;99.90;;;;;;5017718;28;20472;-63
2020/12/21 06:02:41;;;;;;;20.53;13.80;;;6.00;99.90;;;;;;5017065;28;20457;-63
2020/12/21 06:05:10;;;;;;;20.70;14.00;;;5.90;99.90;;;;;;5016649;28;20496;-63
2020/12/21 06:07:37;;;;;;;20.23;13.90;;;6.00;99.90;;;;;;5016759;28;20465;-63
2020/12/21 06:10:05;;;;;;;21.00;15.60;;;6.00;99.90;;;;;;5016597;28;20457;-63
2020/12/21 06:12:37;;;;;;;18.73;12.57;;;6.00;99.90;;;;;;5016448;28;20843;-63
2020/12/21 06:15:08;;;;;;;20.87;14.37;;;6.00;99.90;;;;;;5017001;28;20736;-63
2020/12/21 06:17:35;;;;;;;21.50;13.97;;;5.90;99.90;;;;;;5016571;28;20473;-63
2020/12/21 06:20:04;;;;;;;22.17;14.83;;;5.90;99.90;;;;;;5016575;28;20791;-64
2020/12/21 06:22:31;;;;;;;20.07;13.90;;;5.90;99.90;;;;;;5017588;28;20457;-63
2020/12/21 06:24:57;;;;;;;23.50;14.10;;;5.80;99.90;;;;;;5016600;28;20448;-63
2020/12/21 06:27:23;;;;;;;18.00;12.73;;;5.90;99.90;;;;;;5016309;28;20457;-62
2020/12/21 06:29:58;;;;;;;21.27;13.53;;;5.90;99.90;;;;;;5016079;28;20488;-63
2020/12/21 06:32:29;;;;;;;21.23;14.60;;;5.90;99.90;;;;;;5017745;28;20539;-63
2020/12/21 06:34:56;;;;;;;19.73;13.80;;;5.80;99.90;;;;;;5016038;28;20469;-64
2020/12/21 06:37:22;;;;;;;24.00;13.43;;;5.90;99.90;;;;;;5016702;28;20481;-63
2020/12/21 06:39:58;;;;;;;19.17;13.57;;;5.80;99.90;;;;;;5016104;28;20464;-63
2020/12/21 06:42:25;;;;;;;20.20;13.80;;;5.80;99.90;;;;;;5015857;28;20441;-64
2020/12/21 06:44:54;;;;;;;21.87;14.63;;;5.80;99.90;;;;;;5015921;28;20779;-63
2020/12/21 06:47:22;;;;;;;20.60;13.47;;;5.80;99.90;;;;;;5016019;28;20445;-64
2020/12/21 06:49:48;;;;;;;20.10;13.27;;;5.80;99.90;;;;;;5014937;28;20525;-63
2020/12/21 06:52:14;;;;;;;23.20;14.70;;;5.80;99.90;;;;;;5016455;28;20831;-63
2020/12/21 06:54:41;;;;;;;23.90;13.87;;;5.90;99.90;;;;;;5015765;28;20480;-63
2020/12/21 06:57:08;;;;;;;21.40;13.87;;;5.80;99.90;;;;;;5015911;28;20551;-63
2020/12/21 06:59:34;;;;;;;22.60;14.20;;;5.80;99.90;;;;;;5016390;28;20467;-63
2020/12/21 07:02:00;;;;;;;19.33;13.23;;;5.90;99.90;;;;;;5015626;28;20496;-63
2020/12/21 07:04:28;;;;;;;21.03;13.10;;;5.90;99.90;;;;;;5016240;28;20790;-63
2020/12/21 07:06:55;;;;;;;21.50;14.37;;;5.90;99.90;;;;;;5015554;28;20853;-64
2020/12/21 07:09:24;;;;;;;20.70;13.83;;;5.90;99.90;;;;;;5016358;28;20491;-63
2020/12/21 07:11:53;;;;;;;20.60;13.67;;;5.90;99.90;;;;;;5015594;28;20556;-64
2020/12/21 07:14:22;;;;;;;19.70;13.03;;;5.90;99.90;;;;;;5015491;28;20476;-64
2020/12/21 07:16:48;;;;;;;17.80;12.60;;;5.80;99.90;;;;;;5015672;28;20792;-64
2020/12/21 07:19:14;;;;;;;19.97;12.90;;;5.80;99.90;;;;;;5015588;28;20457;-64
2020/12/21 07:21:41;;;;;;;17.67;13.00;;;5.80;99.90;;;;;;5015794;28;20485;-63
2020/12/21 07:24:08;;;;;;;22.77;14.67;;;5.70;99.90;;;;;;5015445;28;20453;-62
2020/12/21 07:26:34;;;;;;;19.70;12.97;;;5.70;99.90;;;;;;5015616;28;20786;-63
2020/12/21 07:29:00;;;;;;;18.17;12.70;;;5.70;99.90;;;;;;5015820;28;20489;-63
2020/12/21 07:31:28;;;;;;;19.53;12.73;;;5.70;99.90;;;;;;5015162;28;20464;-63
2020/12/21 07:33:56;;;;;;;21.87;13.30;;;5.70;99.90;;;;;;5015615;28;20592;-63
2020/12/21 07:36:24;;;;;;;21.83;14.33;;;5.60;99.90;;;;;;5016098;28;20491;-64
2020/12/21 07:38:51;;;;;;;19.37;13.03;;;5.70;99.90;;;;;;5017193;28;20457;-63
2020/12/21 07:41:18;;;;;;;20.20;13.60;;;5.70;99.90;;;;;;5015741;28;20461;-64
2020/12/21 07:43:49;;;;;;;20.33;12.97;;;5.60;99.90;;;;;;5016516;28;20996;-64
2020/12/21 07:46:20;;;;;;;21.60;13.37;;;5.60;99.90;;;;;;5016790;28;20500;-61
2020/12/21 07:48:48;;;;;;;19.47;12.63;;;5.70;99.90;;;;;;5015178;28;20445;-62
2020/12/21 07:51:18;;;;;;;19.40;13.47;;;5.60;99.90;;;;;;5015389;28;20472;-60
2020/12/21 07:53:45;;;;;;;19.53;13.20;;;5.60;99.90;;;;;;5015926;28;20572;-61
2020/12/21 07:56:14;;;;;;;22.87;13.00;;;5.60;99.90;;;;;;5015348;28;20953;-61
2020/12/21 07:58:40;;;;;;;17.70;11.57;;;5.60;99.90;;;;;;5015149;28;20461;-60
2020/12/21 08:01:07;;;;;;;21.03;13.13;;;5.60;99.90;;;;;;5016866;28;20467;-61
2020/12/21 08:03:37;;;;;;;19.97;12.57;;;5.70;99.90;;;;;;5020182;28;20914;-65
2020/12/21 08:06:12;;;;;;;17.83;12.80;;;5.60;99.90;;;;;;5020214;28;20817;-66
2020/12/21 08:08:40;;;;;;;17.20;11.77;;;5.60;99.90;;;;;;5018831;28;20441;-66
2020/12/21 08:11:12;;;;;;;18.27;12.57;;;5.70;99.90;;;;;;5019186;28;20567;-66
2020/12/21 08:13:40;;;;;;;20.90;12.80;;;5.70;99.90;;;;;;5018592;28;20901;-66
2020/12/21 08:16:08;;;;;;;17.97;13.20;;;5.70;99.90;;;;;;5018921;28;20461;-65
2020/12/21 08:18:34;;;;;;;15.83;11.60;;;5.70;99.90;;;;;;5018691;28;20464;-65
2020/12/21 08:21:00;;;;;;;20.53;13.53;;;5.70;99.90;;;;;;5019056;28;20461;-66
2020/12/21 08:23:28;;;;;;;18.90;10.77;;;5.70;99.90;;;;;;5018636;28;20460;-66
2020/12/21 08:25:55;;;;;;;16.70;11.40;;;5.80;99.90;;;;;;5018791;28;20475;-66
2020/12/21 08:28:32;;;;;;;22.07;12.10;;;5.70;99.90;;;;;;5018140;28;20489;-65
2020/12/21 08:31:10;;;;;;;16.47;11.60;;;5.70;99.90;;;;;;5018307;28;20455;-65
2020/12/21 08:33:37;;;;;;;18.17;11.20;;;5.70;99.90;;;;;;5018772;28;20945;-67
2020/12/21 08:36:21;;;;;;;15.50;10.13;;;5.60;99.90;;;;;;5018636;28;20471;-66
2020/12/21 08:38:49;;;;;;;17.13;12.20;;;5.70;99.90;;;;;;5018879;28;20460;-65
2020/12/21 08:41:16;;;;;;;17.83;12.03;;;5.70;99.90;;;;;;5018564;28;20514;-65
2020/12/21 08:43:42;;;;;;;17.73;11.70;;;5.80;99.90;;;;;;5018580;28;20453;-66
2020/12/21 08:46:09;;;;;;;18.37;12.63;;;5.80;99.90;;;;;;5018432;28;20456;-66
2020/12/21 08:48:40;;;;;;;18.93;11.83;;;5.80;99.90;;;;;;5018157;28;20465;-66
2020/12/21 08:51:06;;;;;;;15.53;11.20;;;5.80;99.90;;;;;;5019552;28;20483;-66
2020/12/21 08:53:33;;;;;;;23.30;12.37;;;5.80;99.90;;;;;;5018910;28;20481;-65
2020/12/21 08:56:00;;;;;;;17.43;11.37;;;5.90;99.90;;;;;;5020924;28;20480;-65
2020/12/21 08:58:26;;;;;;;18.17;12.27;;;5.80;99.90;;;;;;5018278;28;20456;-67
2020/12/21 09:00:52;;;;;;;18.57;13.00;;;5.90;99.90;;;;;;5018073;28;20922;-67
2020/12/21 09:03:18;;;;;;;17.60;12.17;;;5.90;99.90;;;;;;5018715;28;20500;-67
2020/12/21 09:05:44;;;;;;;21.73;12.30;;;5.80;99.90;;;;;;5018036;28;20850;-67
2020/12/21 09:08:10;;;;;;;17.40;13.00;;;5.80;99.90;;;;;;5017980;28;20852;-67
2020/12/21 09:10:36;;;;;;;20.00;12.07;;;5.80;99.90;;;;;;5018146;28;20523;-68
2020/12/21 09:13:03;;;;;;;19.67;12.07;;;5.80;99.90;;;;;;5016791;28;20467;-65
2020/12/21 09:15:29;;;;;;;14.93;11.90;;;5.80;99.90;;;;;;5018042;28;20460;-66
2020/12/21 09:17:55;;;;;;;18.47;12.07;;;5.80;99.90;;;;;;5017668;28;20460;-67
2020/12/21 09:20:21;;;;;;;18.80;12.00;;;5.90;99.90;;;;;;5017734;28;20496;-66
2020/12/21 09:22:47;;;;;;;19.23;11.93;;;5.90;99.90;;;;;;5017667;28;20469;-66
2020/12/21 09:25:16;;;;;;;21.00;13.10;;;5.90;99.90;;;;;;5019458;28;20457;-66
2020/12/21 09:27:42;;;;;;;15.10;10.97;;;5.90;99.90;;;;;;5019582;28;20476;-62
2020/12/21 09:30:09;;;;;;;19.10;12.27;;;5.90;99.90;;;;;;5017053;28;20496;-61
2020/12/21 09:32:35;;;;;;;18.90;12.83;;;5.90;99.90;;;;;;5017574;28;20923;-62
2020/12/21 09:35:01;;;;;;;22.80;13.10;;;6.00;99.90;;;;;;5017583;28;20797;-62
2020/12/21 09:37:27;;;;;;;23.63;13.30;;;6.00;99.90;;;;;;5017223;28;20457;-61
2020/12/21 09:39:53;;;;;;;19.70;13.70;;;6.00;99.90;;;;;;5017725;28;20488;-62
2020/12/21 09:42:19;;;;;;;22.23;15.53;;;6.00;99.90;;;;;;5017417;28;20465;-62
2020/12/21 09:44:49;;;;;;;19.17;12.80;;;6.10;99.90;;;;;;5017199;28;20523;-62
2020/12/21 09:47:16;;;;;;;19.17;12.70;;;6.10;99.90;;;;;;5017206;28;20961;-62
2020/12/21 09:49:42;;;;;;;15.63;11.13;;;6.20;99.90;;;;;;5017177;28;20468;-63
2020/12/21 09:52:08;;;;;;;19.20;12.17;;;6.20;99.90;;;;;;5016966;28;20461;-63
2020/12/21 09:54:34;;;;;;;18.57;11.53;;;6.30;99.90;;;;;;5017404;28;20476;-62
2020/12/21 09:57:01;;;;;;;18.70;11.20;;;6.40;99.90;;;;;;5017007;28;20468;-62
2020/12/21 09:59:27;;;;;;;19.10;11.33;;;6.40;99.90;;;;;;5017049;28;20457;-61
2020/12/21 10:01:53;;;;;;;18.10;11.97;;;6.50;99.90;;;;;;5017952;28;20461;-61
2020/12/21 10:04:20;;;;;;;16.47;11.37;;;6.50;99.90;;;;;;5017794;28;20453;-62
2020/12/21 10:06:50;;;;;;;16.30;11.67;;;6.50;99.90;;;;;;5017801;28;20468;-62
2020/12/21 10:09:16;;;;;;;18.70;11.23;;;6.50;99.90;;;;;;5016810;28;20456;-62
2020/12/21 10:11:42;;;;;;;13.53;10.90;;;6.50;99.90;;;;;;5017010;28;20519;-62
2020/12/21 10:14:08;;;;;;;14.37;10.37;;;6.60;99.90;;;;;;5016874;28;20476;-62
2020/12/21 10:16:34;;;;;;;16.63;11.17;;;6.60;99.90;;;;;;5016724;28;20488;-62
2020/12/21 10:19:00;;;;;;;15.37;12.33;;;6.60;99.90;;;;;;5016768;28;20472;-62
2020/12/21 10:21:27;;;;;;;15.80;10.43;;;6.70;99.90;;;;;;5018514;28;20468;-64
2020/12/21 10:23:53;;;;;;;21.50;11.00;;;6.70;99.90;;;;;;5016933;28;20457;-62
2020/12/21 10:26:19;;;;;;;19.17;11.00;;;6.70;99.90;;;;;;5016307;28;20457;-61
2020/12/21 10:28:46;;;;;;;15.37;10.47;;;6.70;99.90;;;;;;5016074;28;20488;-62
2020/12/21 10:31:12;;;;;;;15.43;10.73;;;6.80;99.90;;;;;;5016974;28;20445;-62
2020/12/21 10:33:38;;;;;;;12.47;9.10;;;6.80;99.90;;;;;;5016025;28;20961;-62
2020/12/21 10:36:07;;;;;;;97.30;47.97;;;6.90;99.90;;;;;;5017002;28;20468;-65
2020/12/21 10:38:34;;;;;;;15.97;11.43;;;6.90;99.90;;;;;;5021794;28;20460;-62
2020/12/21 10:41:00;;;;;;;14.77;10.40;;;6.90;99.90;;;;;;5028361;28;20460;-62
2020/12/21 10:43:26;;;;;;;14.70;9.53;;;7.00;99.90;;;;;;5023173;28;20460;-62
2020/12/21 10:45:52;;;;;;;12.93;9.70;;;7.00;99.90;;;;;;5016610;28;20538;-64
2020/12/21 10:48:18;;;;;;;14.47;10.63;;;7.00;99.90;;;;;;5016345;28;20461;-65
2020/12/21 10:50:45;;;;;;;11.13;9.77;;;7.10;99.90;;;;;;5017443;28;20457;-64
2020/12/21 10:53:12;;;;;;;16.27;10.57;;;7.10;99.90;;;;;;5017842;28;20988;-61
2020/12/21 10:55:39;;;;;;;13.33;9.20;;;7.10;99.90;;;;;;5016899;28;20461;-62
2020/12/21 10:58:05;;;;;;;14.00;9.27;;;7.20;99.90;;;;;;5020737;28;20461;-63
2020/12/21 11:00:31;;;;;;;12.30;8.87;;;7.20;99.90;;;;;;5020226;28;20468;-61
2020/12/21 11:02:57;;;;;;;13.70;9.73;;;7.30;99.90;;;;;;5020683;28;20461;-62
2020/12/21 11:05:23;;;;;;;15.17;9.80;;;7.40;99.90;;;;;;5020649;28;20457;-62
2020/12/21 11:07:49;;;;;;;13.57;8.80;;;7.40;99.90;;;;;;5018160;28;20461;-63
2020/12/21 11:10:15;;;;;;;11.17;8.20;;;7.50;99.90;;;;;;5016162;28;20571;-62
2020/12/21 11:12:42;;;;;;;10.70;8.20;;;7.50;99.90;;;;;;5016023;28;20460;-62
2020/12/21 11:15:08;;;;;;;12.53;8.40;;;7.50;99.90;;;;;;5015958;28;20481;-60
2020/12/21 11:17:34;;;;;;;12.03;8.67;;;7.50;99.90;;;;;;5015585;28;20465;-62
2020/12/21 11:20:01;;;;;;;11.50;8.90;;;7.50;99.90;;;;;;5015459;28;20492;-61
2020/12/21 11:22:27;;;;;;;14.23;10.13;;;7.60;99.90;;;;;;5015797;28;20461;-61
2020/12/21 11:24:54;;;;;;;11.50;8.80;;;7.60;99.90;;;;;;5015333;28;20449;-62
2020/12/21 11:27:20;;;;;;;14.17;9.00;;;7.70;99.90;;;;;;5015499;28;20456;-61
2020/12/21 11:29:47;;;;;;;11.33;8.00;;;7.70;99.90;;;;;;5014933;28;20856;-61
2020/12/21 11:32:13;;;;;;;12.97;8.80;;;7.70;99.90;;;;;;5015422;28;20461;-62
2020/12/21 11:34:39;;;;;;;12.90;8.07;;;7.70;99.90;;;;;;5015393;28;20524;-62
2020/12/21 11:37:05;;;;;;;12.20;8.93;;;7.70;99.90;;;;;;5014941;28;20456;-61
2020/12/21 11:39:31;;;;;;;11.73;8.33;;;7.60;99.90;;;;;;5015432;28;20461;-62
2020/12/21 11:41:57;;;;;;;9.33;7.70;;;7.60;99.90;;;;;;5015332;28;20992;-62
2020/12/21 11:44:23;;;;;;;12.80;8.10;;;7.70;99.90;;;;;;5015366;28;20543;-61
2020/12/21 11:46:50;;;;;;;12.17;8.50;;;7.80;99.90;;;;;;5015323;28;20464;-62
2020/12/21 11:49:16;;;;;;;13.23;8.73;;;7.90;99.90;;;;;;5015140;28;20460;-63
2020/12/21 11:51:42;;;;;;;12.27;7.90;;;8.00;99.90;;;;;;5014839;28;20980;-61
2020/12/21 11:54:08;;;;;;;10.50;7.70;;;8.10;99.90;;;;;;5015806;28;20481;-62
2020/12/21 11:56:34;;;;;;;22.03;13.43;;;8.20;99.90;;;;;;5015258;28;20799;-61
2020/12/21 11:59:00;;;;;;;12.07;7.47;;;8.40;99.90;;;;;;5015023;28;20464;-61
2020/12/21 12:01:27;;;;;;;12.30;7.60;;;8.40;99.90;;;;;;5015017;28;20468;-61
2020/12/21 12:03:53;;;;;;;11.50;7.33;;;8.60;99.90;;;;;;5014761;28;20519;-62
2020/12/21 12:06:24;;;;;;;11.20;7.63;;;8.80;99.90;;;;;;5014893;28;20514;-62
2020/12/21 12:08:50;;;;;;;7.83;6.20;;;9.20;99.90;;;;;;5015140;28;20839;-62
2020/12/21 12:11:21;;;;;;;11.03;7.30;;;9.70;99.90;;;;;;5015171;28;20773;-63
2020/12/21 12:13:47;;;;;;;12.40;7.83;;;10.10;99.90;;;;;;5014763;28;20559;-62
2020/12/21 12:16:19;;;;;;;8.90;6.43;;;10.10;99.90;;;;;;5015361;28;20461;-61
2020/12/21 12:18:45;;;;;;;11.67;6.67;;;9.90;99.90;;;;;;5014902;28;20576;-61
2020/12/21 12:21:12;;;;;;;8.40;7.07;;;10.00;99.90;;;;;;5016741;28;20518;-62
2020/12/21 12:23:38;;;;;;;9.17;6.93;;;10.20;99.90;;;;;;5016490;28;20457;-61
2020/12/21 12:26:05;;;;;;;11.93;6.83;;;10.30;99.90;;;;;;5016530;28;20468;-62
2020/12/21 12:28:31;;;;;;;10.40;6.63;;;10.30;99.90;;;;;;5015548;28;20457;-61
2020/12/21 12:30:57;;;;;;;9.13;6.93;;;10.30;99.90;;;;;;5015810;28;20863;-61
2020/12/21 12:33:23;;;;;;;9.30;6.30;;;10.20;99.90;;;;;;5014716;28;20476;-62
2020/12/21 12:35:49;;;;;;;9.93;6.40;;;10.20;99.90;;;;;;5014970;28;20460;-62